El Paso, TX (88520)

5:38 AM MDT on July 27, 2016 (GMT -0600)
Park Foothills | | Change Station

Elev 4039 ft 31.85 °N, 106.45 °W | Updated 24 seconds ago

Mostly Cloudy
Mostly Cloudy
75.0 °F
Feels Like 77 °F
N
3.0
Wind Variable Wind from NE
Gusts 7.0 mph

Today
High -- | Low -- °F
--% Chance of Precip.
Yesterday
High -- | Low -- °F
Precip. -- in
Pressure 29.87 in
Visibility 10.0 miles
Clouds Few 1800 ft
Mostly Cloudy 5500 ft
Mostly Cloudy 9000 ft
Heat Index 77 °F
Dew Point 62 °F
Humidity 63%
Rainfall 0.00 in
Snow Depth Not available.
6:18 AM 8:05 PM
Last Quarter, 44% visible
METAR KELP 271051Z COR 00000KT 10SM FEW018 BKN055 BKN090 24/18 A3012 RMK AO2 RAE45 SLP115 CB DSNT ALQDS MOV S P0003 T02390183
Pressure 29.87 in
Visibility 10.0 miles
Clouds Few 1800 ft
Mostly Cloudy 5500 ft
Mostly Cloudy 9000 ft
Heat Index 77 °F
Dew Point 62 °F
Humidity 63%
Rainfall 0.00 in
Snow Depth Not available.
6:18 AM 8:05 PM
Last Quarter, 44% visible
METAR KELP 271051Z COR 00000KT 10SM FEW018 BKN055 BKN090 24/18 A3012 RMK AO2 RAE45 SLP115 CB DSNT ALQDS MOV S P0003 T02390183

10-Day Weather Forecast

Almanac

Astronomy

Jul. 27, 2016 Rise Set
Actual Time
Civil Twilight
Nautical Twilight
Astronomical Twilight
Moon
Length of Visible Light
Length of Day
Tomorrow will be .
, % of the Moon is Illuminated

Today's Extremes

State Highs State Lows

Community

WunderPhotos

Upload Photos

1,927,828 photos uploaded!

WunderBlog® & News

Nearby

Air Quality

  Air Quality AQ Index Pollutant
Not available.

Snow Depth

Station Depth Elevation

Earthquake Activity

City Distance Mag. Time & Date
Minimum magnitude displayed is 2.5.

Coastal Water Temperatures

Place Temperature

Stations

Nearby Weather Stations

Station Location Temp. Windchill Dew Point Humidity Wind Precip. Elev Updated Type
                   

Watches & Warnings

There are currently no watches in effect.